sensor_id;sensor_type;location;lat;lon;timestamp;temperature;humidity
25937;DHT22;13733;51.178;4.450;2023-01-08T00:01:59;11.40;99.90
25937;DHT22;13733;51.178;4.450;2023-01-08T00:04:25;11.50;99.90
25937;DHT22;13733;51.178;4.450;2023-01-08T00:06:51;11.30;99.90
25937;DHT22;13733;51.178;4.450;2023-01-08T00:09:16;11.30;99.90
25937;DHT22;13733;51.178;4.450;2023-01-08T00:11:42;11.20;99.90
25937;DHT22;13733;51.178;4.450;2023-01-08T00:14:09;11.20;99.90
25937;DHT22;13733;51.178;4.450;2023-01-08T00:16:35;11.20;99.90
25937;DHT22;13733;51.178;4.450;2023-01-08T00:19:02;11.20;99.90
25937;DHT22;13733;51.178;4.450;2023-01-08T00:21:28;11.30;99.90
25937;DHT22;13733;51.178;4.450;2023-01-08T00:23:54;11.20;99.90
25937;DHT22;13733;51.178;4.450;2023-01-08T00:26:20;11.10;99.90
25937;DHT22;13733;51.178;4.450;2023-01-08T00:28:47;11.20;99.90
25937;DHT22;13733;51.178;4.450;2023-01-08T00:31:14;11.20;99.90
25937;DHT22;13733;51.178;4.450;2023-01-08T00:33:41;11.40;99.90
25937;DHT22;13733;51.178;4.450;2023-01-08T00:36:09;11.50;99.90
25937;DHT22;13733;51.178;4.450;2023-01-08T00:38:35;11.30;99.90
25937;DHT22;13733;51.178;4.450;2023-01-08T00:41:01;11.20;99.90
25937;DHT22;13733;51.178;4.450;2023-01-08T00:43:27;11.20;99.90
25937;DHT22;13733;51.178;4.450;2023-01-08T00:45:52;11.20;99.90
25937;DHT22;13733;51.178;4.450;2023-01-08T00:48:22;11.10;99.90
25937;DHT22;13733;51.178;4.450;2023-01-08T00:50:48;10.90;99.90
25937;DHT22;13733;51.178;4.450;2023-01-08T00:53:14;11.00;99.90
25937;DHT22;13733;51.178;4.450;2023-01-08T00:55:40;11.00;99.90
25937;DHT22;13733;51.178;4.450;2023-01-08T00:58:06;10.90;99.90
25937;DHT22;13733;51.178;4.450;2023-01-08T01:00:31;10.80;99.90
25937;DHT22;13733;51.178;4.450;2023-01-08T01:02:57;10.90;99.90
25937;DHT22;13733;51.178;4.450;2023-01-08T01:05:23;10.80;99.90
25937;DHT22;13733;51.178;4.450;2023-01-08T01:07:48;10.70;99.90
25937;DHT22;13733;51.178;4.450;2023-01-08T01:10:15;10.60;99.90
25937;DHT22;13733;51.178;4.450;2023-01-08T01:12:41;10.50;99.90
25937;DHT22;13733;51.178;4.450;2023-01-08T01:15:10;10.50;99.90
25937;DHT22;13733;51.178;4.450;2023-01-08T01:17:40;10.60;99.90
25937;DHT22;13733;51.178;4.450;2023-01-08T01:20:08;10.50;99.90
25937;DHT22;13733;51.178;4.450;2023-01-08T01:22:34;10.50;99.90
25937;DHT22;13733;51.178;4.450;2023-01-08T01:25:01;10.30;99.90
25937;DHT22;13733;51.178;4.450;2023-01-08T01:27:26;10.30;99.90
25937;DHT22;13733;51.178;4.450;2023-01-08T01:29:52;10.20;99.90
25937;DHT22;13733;51.178;4.450;2023-01-08T01:32:18;10.20;99.90
25937;DHT22;13733;51.178;4.450;2023-01-08T01:34:44;10.30;99.90
25937;DHT22;13733;51.178;4.450;2023-01-08T01:37:13;10.30;99.90
25937;DHT22;13733;51.178;4.450;2023-01-08T01:39:39;10.30;99.90
25937;DHT22;13733;51.178;4.450;2023-01-08T01:42:05;10.40;99.90
25937;DHT22;13733;51.178;4.450;2023-01-08T01:44:44;10.30;99.90
25937;DHT22;13733;51.178;4.450;2023-01-08T01:47:35;10.30;99.90
25937;DHT22;13733;51.178;4.450;2023-01-08T01:52:39;10.10;99.90
25937;DHT22;13733;51.178;4.450;2023-01-08T01:55:07;10.20;99.90
25937;DHT22;13733;51.178;4.450;2023-01-08T01:57:35;10.30;99.90
25937;DHT22;13733;51.178;4.450;2023-01-08T02:00:06;10.30;99.90
25937;DHT22;13733;51.178;4.450;2023-01-08T02:02:37;10.40;99.90
25937;DHT22;13733;51.178;4.450;2023-01-08T02:05:03;10.30;99.90
25937;DHT22;13733;51.178;4.450;2023-01-08T02:12:31;10.20;99.90
25937;DHT22;13733;51.178;4.450;2023-01-08T02:15:24;10.20;99.90
25937;DHT22;13733;51.178;4.450;2023-01-08T02:20:34;10.20;99.90
25937;DHT22;13733;51.178;4.450;2023-01-08T02:28:08;10.00;99.90
25937;DHT22;13733;51.178;4.450;2023-01-08T02:30:35;10.10;99.90
25937;DHT22;13733;51.178;4.450;2023-01-08T02:33:01;10.20;99.90
25937;DHT22;13733;51.178;4.450;2023-01-08T02:38:26;10.10;99.90
25937;DHT22;13733;51.178;4.450;2023-01-08T02:40:57;10.30;99.90
25937;DHT22;13733;51.178;4.450;2023-01-08T02:43:45;10.30;99.90
25937;DHT22;13733;51.178;4.450;2023-01-08T02:46:21;10.20;99.90
25937;DHT22;13733;51.178;4.450;2023-01-08T02:48:51;10.20;99.90
25937;DHT22;13733;51.178;4.450;2023-01-08T02:51:29;10.30;99.90
25937;DHT22;13733;51.178;4.450;2023-01-08T02:54:02;10.40;99.90
25937;DHT22;13733;51.178;4.450;2023-01-08T02:56:35;10.30;99.90
25937;DHT22;13733;51.178;4.450;2023-01-08T02:59:02;10.30;99.90
25937;DHT22;13733;51.178;4.450;2023-01-08T03:01:30;10.20;99.90
25937;DHT22;13733;51.178;4.450;2023-01-08T03:03:59;10.10;99.90
25937;DHT22;13733;51.178;4.450;2023-01-08T03:06:28;10.10;99.90
25937;DHT22;13733;51.178;4.450;2023-01-08T03:08:54;10.10;99.90
25937;DHT22;13733;51.178;4.450;2023-01-08T03:11:22;10.10;99.90
25937;DHT22;13733;51.178;4.450;2023-01-08T03:14:10;10.00;99.90
25937;DHT22;13733;51.178;4.450;2023-01-08T03:16:44;10.10;99.90
25937;DHT22;13733;51.178;4.450;2023-01-08T03:19:24;10.20;99.90
25937;DHT22;13733;51.178;4.450;2023-01-08T03:21:51;10.20;99.90
25937;DHT22;13733;51.178;4.450;2023-01-08T03:24:24;10.20;99.90
25937;DHT22;13733;51.178;4.450;2023-01-08T03:26:54;10.20;99.90
25937;DHT22;13733;51.178;4.450;2023-01-08T03:29:22;10.10;99.90
25937;DHT22;13733;51.178;4.450;2023-01-08T03:31:50;10.30;99.90
25937;DHT22;13733;51.178;4.450;2023-01-08T03:34:19;10.40;99.90
25937;DHT22;13733;51.178;4.450;2023-01-08T03:36:47;10.30;99.90
25937;DHT22;13733;51.178;4.450;2023-01-08T03:39:17;10.30;99.90
25937;DHT22;13733;51.178;4.450;2023-01-08T03:41:45;10.20;99.90
25937;DHT22;13733;51.178;4.450;2023-01-08T03:44:11;10.20;99.90
25937;DHT22;13733;51.178;4.450;2023-01-08T03:46:41;10.10;99.90
25937;DHT22;13733;51.178;4.450;2023-01-08T03:49:09;10.00;99.90
25937;DHT22;13733;51.178;4.450;2023-01-08T03:51:43;10.00;99.90
25937;DHT22;13733;51.178;4.450;2023-01-08T03:54:13;9.90;99.90
25937;DHT22;13733;51.178;4.450;2023-01-08T03:56:39;9.90;99.90
25937;DHT22;13733;51.178;4.450;2023-01-08T03:59:05;10.00;99.90
25937;DHT22;13733;51.178;4.450;2023-01-08T04:01:31;10.20;99.90
25937;DHT22;13733;51.178;4.450;2023-01-08T04:03:56;10.10;99.90
25937;DHT22;13733;51.178;4.450;2023-01-08T04:06:22;10.10;99.90
25937;DHT22;13733;51.178;4.450;2023-01-08T04:08:48;10.10;99.90
25937;DHT22;13733;51.178;4.450;2023-01-08T04:11:14;10.20;99.90
25937;DHT22;13733;51.178;4.450;2023-01-08T04:13:39;10.20;99.90
25937;DHT22;13733;51.178;4.450;2023-01-08T04:16:05;10.10;99.90
25937;DHT22;13733;51.178;4.450;2023-01-08T04:18:33;10.20;99.90
25937;DHT22;13733;51.178;4.450;2023-01-08T04:20:59;10.20;99.90
25937;DHT22;13733;51.178;4.450;2023-01-08T04:23:24;10.10;99.90
25937;DHT22;13733;51.178;4.450;2023-01-08T04:25:51;10.10;99.90
25937;DHT22;13733;51.178;4.450;2023-01-08T04:28:17;10.00;99.90
25937;DHT22;13733;51.178;4.450;2023-01-08T04:30:43;9.90;99.90
25937;DHT22;13733;51.178;4.450;2023-01-08T04:33:09;10.00;99.90
25937;DHT22;13733;51.178;4.450;2023-01-08T04:35:35;9.90;99.90
25937;DHT22;13733;51.178;4.450;2023-01-08T04:38:00;9.90;99.90
25937;DHT22;13733;51.178;4.450;2023-01-08T04:40:26;9.70;99.90
25937;DHT22;13733;51.178;4.450;2023-01-08T04:42:52;9.70;99.90
25937;DHT22;13733;51.178;4.450;2023-01-08T04:45:17;9.70;99.90
25937;DHT22;13733;51.178;4.450;2023-01-08T04:47:43;9.70;99.90
25937;DHT22;13733;51.178;4.450;2023-01-08T04:50:09;9.50;99.90
25937;DHT22;13733;51.178;4.450;2023-01-08T04:52:35;9.50;99.90
25937;DHT22;13733;51.178;4.450;2023-01-08T04:55:00;9.60;99.90
25937;DHT22;13733;51.178;4.450;2023-01-08T04:57:26;9.50;99.90
25937;DHT22;13733;51.178;4.450;2023-01-08T04:59:52;9.60;99.90
25937;DHT22;13733;51.178;4.450;2023-01-08T05:02:18;9.50;99.90
25937;DHT22;13733;51.178;4.450;2023-01-08T05:04:43;9.30;99.90
25937;DHT22;13733;51.178;4.450;2023-01-08T05:07:09;9.00;99.90
25937;DHT22;13733;51.178;4.450;2023-01-08T05:09:35;8.90;99.90
25937;DHT22;13733;51.178;4.450;2023-01-08T05:12:00;8.80;99.90
25937;DHT22;13733;51.178;4.450;2023-01-08T05:14:26;8.90;99.90
25937;DHT22;13733;51.178;4.450;2023-01-08T05:16:52;8.80;99.90
25937;DHT22;13733;51.178;4.450;2023-01-08T05:19:17;8.80;99.90
25937;DHT22;13733;51.178;4.450;2023-01-08T05:21:43;8.60;99.90
25937;DHT22;13733;51.178;4.450;2023-01-08T05:24:09;8.50;99.90
25937;DHT22;13733;51.178;4.450;2023-01-08T05:26:35;8.40;99.90
25937;DHT22;13733;51.178;4.450;2023-01-08T05:29:00;8.40;99.90
25937;DHT22;13733;51.178;4.450;2023-01-08T05:31:26;8.40;99.90
25937;DHT22;13733;51.178;4.450;2023-01-08T05:33:52;8.40;99.90
25937;DHT22;13733;51.178;4.450;2023-01-08T05:36:18;8.30;99.90
25937;DHT22;13733;51.178;4.450;2023-01-08T05:38:43;8.30;99.90
25937;DHT22;13733;51.178;4.450;2023-01-08T05:41:09;8.30;99.90
25937;DHT22;13733;51.178;4.450;2023-01-08T05:43:35;8.40;99.90
25937;DHT22;13733;51.178;4.450;2023-01-08T05:46:02;8.40;99.90
25937;DHT22;13733;51.178;4.450;2023-01-08T05:48:29;8.50;99.90
25937;DHT22;13733;51.178;4.450;2023-01-08T05:50:56;8.60;99.90
25937;DHT22;13733;51.178;4.450;2023-01-08T05:53:21;8.70;99.90
25937;DHT22;13733;51.178;4.450;2023-01-08T05:55:47;8.40;99.90
25937;DHT22;13733;51.178;4.450;2023-01-08T05:58:13;8.40;99.90
25937;DHT22;13733;51.178;4.450;2023-01-08T06:00:38;8.20;99.90
25937;DHT22;13733;51.178;4.450;2023-01-08T06:03:04;8.20;99.90
25937;DHT22;13733;51.178;4.450;2023-01-08T06:05:31;8.10;99.90
25937;DHT22;13733;51.178;4.450;2023-01-08T06:07:57;8.10;99.90
25937;DHT22;13733;51.178;4.450;2023-01-08T06:10:23;8.20;99.90
25937;DHT22;13733;51.178;4.450;2023-01-08T06:12:48;8.10;99.90
25937;DHT22;13733;51.178;4.450;2023-01-08T06:15:14;8.10;99.90
25937;DHT22;13733;51.178;4.450;2023-01-08T06:17:40;8.20;99.90
25937;DHT22;13733;51.178;4.450;2023-01-08T06:20:06;8.10;99.90
25937;DHT22;13733;51.178;4.450;2023-01-08T06:22:33;8.10;99.90
25937;DHT22;13733;51.178;4.450;2023-01-08T06:24:59;8.10;99.90
25937;DHT22;13733;51.178;4.450;2023-01-08T06:27:25;8.10;99.90
25937;DHT22;13733;51.178;4.450;2023-01-08T06:29:50;8.20;99.90
25937;DHT22;13733;51.178;4.450;2023-01-08T06:32:16;8.30;99.90
25937;DHT22;13733;51.178;4.450;2023-01-08T06:34:42;8.30;99.90
25937;DHT22;13733;51.178;4.450;2023-01-08T06:37:07;8.30;99.90
25937;DHT22;13733;51.178;4.450;2023-01-08T06:39:33;8.30;99.90
25937;DHT22;13733;51.178;4.450;2023-01-08T06:41:59;8.40;99.90
25937;DHT22;13733;51.178;4.450;2023-01-08T06:44:24;8.40;99.90
25937;DHT22;13733;51.178;4.450;2023-01-08T06:46:50;8.30;99.90
25937;DHT22;13733;51.178;4.450;2023-01-08T06:49:16;8.40;99.90
25937;DHT22;13733;51.178;4.450;2023-01-08T06:51:42;8.40;99.90
25937;DHT22;13733;51.178;4.450;2023-01-08T06:54:10;8.30;99.90
25937;DHT22;13733;51.178;4.450;2023-01-08T06:56:36;8.30;99.90
25937;DHT22;13733;51.178;4.450;2023-01-08T06:59:01;8.30;99.90
25937;DHT22;13733;51.178;4.450;2023-01-08T07:01:27;8.30;99.90
25937;DHT22;13733;51.178;4.450;2023-01-08T07:03:53;8.30;99.90
25937;DHT22;13733;51.178;4.450;2023-01-08T07:06:20;8.30;99.90
25937;DHT22;13733;51.178;4.450;2023-01-08T07:08:46;8.30;99.90
25937;DHT22;13733;51.178;4.450;2023-01-08T07:11:13;8.30;99.90
25937;DHT22;13733;51.178;4.450;2023-01-08T07:13:39;8.40;99.90
25937;DHT22;13733;51.178;4.450;2023-01-08T07:16:10;8.40;99.90
25937;DHT22;13733;51.178;4.450;2023-01-08T07:18:36;8.40;99.90
25937;DHT22;13733;51.178;4.450;2023-01-08T07:21:04;8.40;99.90
25937;DHT22;13733;51.178;4.450;2023-01-08T07:23:30;8.60;99.90
25937;DHT22;13733;51.178;4.450;2023-01-08T07:26:00;8.60;99.90
25937;DHT22;13733;51.178;4.450;2023-01-08T07:28:26;8.60;99.90
25937;DHT22;13733;51.178;4.450;2023-01-08T07:30:52;8.50;99.90
25937;DHT22;13733;51.178;4.450;2023-01-08T07:33:18;8.50;99.90
25937;DHT22;13733;51.178;4.450;2023-01-08T07:35:50;8.60;99.90
25937;DHT22;13733;51.178;4.450;2023-01-08T07:38:16;8.60;99.90
25937;DHT22;13733;51.178;4.450;2023-01-08T07:40:42;8.50;99.90
25937;DHT22;13733;51.178;4.450;2023-01-08T07:43:08;8.60;99.90
25937;DHT22;13733;51.178;4.450;2023-01-08T07:45:33;8.70;99.90
25937;DHT22;13733;51.178;4.450;2023-01-08T07:47:59;8.60;99.90
25937;DHT22;13733;51.178;4.450;2023-01-08T07:50:26;8.70;99.90
25937;DHT22;13733;51.178;4.450;2023-01-08T07:52:52;8.90;99.90
25937;DHT22;13733;51.178;4.450;2023-01-08T07:55:17;8.80;99.90
25937;DHT22;13733;51.178;4.450;2023-01-08T07:57:43;8.90;99.90
25937;DHT22;13733;51.178;4.450;2023-01-08T08:00:09;9.00;99.90
25937;DHT22;13733;51.178;4.450;2023-01-08T08:02:36;9.00;99.90
25937;DHT22;13733;51.178;4.450;2023-01-08T08:05:02;9.00;99.90
25937;DHT22;13733;51.178;4.450;2023-01-08T08:07:30;9.10;99.90
25937;DHT22;13733;51.178;4.450;2023-01-08T08:09:56;9.10;99.90
25937;DHT22;13733;51.178;4.450;2023-01-08T08:12:21;9.00;99.90
25937;DHT22;13733;51.178;4.450;2023-01-08T08:14:47;9.10;99.90
25937;DHT22;13733;51.178;4.450;2023-01-08T08:17:13;9.00;99.90
25937;DHT22;13733;51.178;4.450;2023-01-08T08:19:38;9.10;99.90
25937;DHT22;13733;51.178;4.450;2023-01-08T08:22:08;8.90;99.90
25937;DHT22;13733;51.178;4.450;2023-01-08T08:24:34;8.80;99.90
25937;DHT22;13733;51.178;4.450;2023-01-08T08:26:59;9.00;99.90
25937;DHT22;13733;51.178;4.450;2023-01-08T08:29:25;9.10;99.90
25937;DHT22;13733;51.178;4.450;2023-01-08T08:31:51;8.90;99.90
25937;DHT22;13733;51.178;4.450;2023-01-08T08:34:16;8.80;99.90
25937;DHT22;13733;51.178;4.450;2023-01-08T08:36:44;8.70;99.90
25937;DHT22;13733;51.178;4.450;2023-01-08T08:39:10;8.60;99.90
25937;DHT22;13733;51.178;4.450;2023-01-08T08:41:36;8.60;99.90
25937;DHT22;13733;51.178;4.450;2023-01-08T08:44:01;8.60;99.90
25937;DHT22;13733;51.178;4.450;2023-01-08T08:46:28;8.60;99.90
25937;DHT22;13733;51.178;4.450;2023-01-08T08:48:54;8.60;99.90
25937;DHT22;13733;51.178;4.450;2023-01-08T08:51:20;8.60;99.90
25937;DHT22;13733;51.178;4.450;2023-01-08T08:53:45;8.60;99.90
25937;DHT22;13733;51.178;4.450;2023-01-08T08:56:11;8.60;99.90
25937;DHT22;13733;51.178;4.450;2023-01-08T08:58:37;8.50;99.90
25937;DHT22;13733;51.178;4.450;2023-01-08T09:01:03;8.60;99.90
25937;DHT22;13733;51.178;4.450;2023-01-08T09:03:29;8.70;99.90
25937;DHT22;13733;51.178;4.450;2023-01-08T09:05:55;8.70;99.90
25937;DHT22;13733;51.178;4.450;2023-01-08T09:08:21;8.70;99.90
25937;DHT22;13733;51.178;4.450;2023-01-08T09:10:47;8.70;99.90
25937;DHT22;13733;51.178;4.450;2023-01-08T09:13:12;8.70;99.90
25937;DHT22;13733;51.178;4.450;2023-01-08T09:15:38;8.60;99.90
25937;DHT22;13733;51.178;4.450;2023-01-08T09:18:04;8.60;99.90
25937;DHT22;13733;51.178;4.450;2023-01-08T09:20:30;8.60;99.90
25937;DHT22;13733;51.178;4.450;2023-01-08T09:23:00;8.70;99.90
25937;DHT22;13733;51.178;4.450;2023-01-08T09:25:26;8.80;99.90
25937;DHT22;13733;51.178;4.450;2023-01-08T09:28:06;8.90;99.90
25937;DHT22;13733;51.178;4.450;2023-01-08T09:30:32;9.10;99.90
25937;DHT22;13733;51.178;4.450;2023-01-08T09:33:02;9.30;99.90
25937;DHT22;13733;51.178;4.450;2023-01-08T09:35:28;9.40;99.90
25937;DHT22;13733;51.178;4.450;2023-01-08T09:37:54;9.30;99.90
25937;DHT22;13733;51.178;4.450;2023-01-08T09:40:43;9.30;99.90
25937;DHT22;13733;51.178;4.450;2023-01-08T09:43:17;9.30;99.90
25937;DHT22;13733;51.178;4.450;2023-01-08T09:45:49;9.30;99.90
25937;DHT22;13733;51.178;4.450;2023-01-08T09:48:17;9.40;99.90
25937;DHT22;13733;51.178;4.450;2023-01-08T09:50:46;9.50;99.90
25937;DHT22;13733;51.178;4.450;2023-01-08T09:53:14;9.50;99.90
25937;DHT22;13733;51.178;4.450;2023-01-08T09:55:42;9.60;99.90
25937;DHT22;13733;51.178;4.450;2023-01-08T09:58:30;9.70;99.90
25937;DHT22;13733;51.178;4.450;2023-01-08T10:00:58;9.80;99.90
25937;DHT22;13733;51.178;4.450;2023-01-08T10:03:31;9.70;99.90
25937;DHT22;13733;51.178;4.450;2023-01-08T10:06:11;9.90;99.90
25937;DHT22;13733;51.178;4.450;2023-01-08T10:08:37;9.90;99.90
25937;DHT22;13733;51.178;4.450;2023-01-08T10:11:04;10.10;99.90
25937;DHT22;13733;51.178;4.450;2023-01-08T10:13:32;10.20;99.90
25937;DHT22;13733;51.178;4.450;2023-01-08T10:15:58;10.20;99.90
25937;DHT22;13733;51.178;4.450;2023-01-08T10:18:29;10.10;99.90
25937;DHT22;13733;51.178;4.450;2023-01-08T10:20:56;10.10;99.90
25937;DHT22;13733;51.178;4.450;2023-01-08T10:23:22;10.20;99.90
25937;DHT22;13733;51.178;4.450;2023-01-08T10:25:53;10.30;99.90
25937;DHT22;13733;51.178;4.450;2023-01-08T10:28:31;10.40;99.90
25937;DHT22;13733;51.178;4.450;2023-01-08T10:31:13;10.50;99.90
25937;DHT22;13733;51.178;4.450;2023-01-08T10:33:48;10.50;99.90
25937;DHT22;13733;51.178;4.450;2023-01-08T10:36:22;10.70;99.90
25937;DHT22;13733;51.178;4.450;2023-01-08T10:39:15;10.90;99.90
25937;DHT22;13733;51.178;4.450;2023-01-08T10:41:43;11.20;99.90
25937;DHT22;13733;51.178;4.450;2023-01-08T10:44:15;11.40;99.90
25937;DHT22;13733;51.178;4.450;2023-01-08T10:46:44;11.70;99.90
25937;DHT22;13733;51.178;4.450;2023-01-08T10:49:24;11.80;99.90
25937;DHT22;13733;51.178;4.450;2023-01-08T10:51:52;11.80;99.90
25937;DHT22;13733;51.178;4.450;2023-01-08T10:54:38;12.00;99.90
25937;DHT22;13733;51.178;4.450;2023-01-08T10:57:25;12.10;99.90
25937;DHT22;13733;51.178;4.450;2023-01-08T10:59:52;12.00;99.90
25937;DHT22;13733;51.178;4.450;2023-01-08T11:02:33;12.10;99.90
25937;DHT22;13733;51.178;4.450;2023-01-08T11:05:01;12.20;99.90
25937;DHT22;13733;51.178;4.450;2023-01-08T11:07:29;12.10;99.90
25937;DHT22;13733;51.178;4.450;2023-01-08T11:09:56;12.00;99.90
25937;DHT22;13733;51.178;4.450;2023-01-08T11:12:39;11.90;99.90
25937;DHT22;13733;51.178;4.450;2023-01-08T11:15:29;11.90;99.90
25937;DHT22;13733;51.178;4.450;2023-01-08T11:17:53;11.70;99.90
25937;DHT22;13733;51.178;4.450;2023-01-08T11:20:22;11.50;99.90
25937;DHT22;13733;51.178;4.450;2023-01-08T11:22:47;11.40;99.90
25937;DHT22;13733;51.178;4.450;2023-01-08T11:25:26;11.40;99.90
25937;DHT22;13733;51.178;4.450;2023-01-08T11:27:53;11.40;99.90
25937;DHT22;13733;51.178;4.450;2023-01-08T11:30:22;11.20;99.90
25937;DHT22;13733;51.178;4.450;2023-01-08T11:32:57;11.50;99.90
25937;DHT22;13733;51.178;4.450;2023-01-08T11:35:47;11.90;99.90
25937;DHT22;13733;51.178;4.450;2023-01-08T11:38:15;12.40;99.90
25937;DHT22;13733;51.178;4.450;2023-01-08T11:40:51;13.30;99.90
25937;DHT22;13733;51.178;4.450;2023-01-08T11:44:21;14.00;99.90
25937;DHT22;13733;51.178;4.450;2023-01-08T11:46:36;14.30;99.90
25937;DHT22;13733;51.178;4.450;2023-01-08T11:49:35;14.20;99.90
25937;DHT22;13733;51.178;4.450;2023-01-08T12:00:41;13.50;99.90
25937;DHT22;13733;51.178;4.450;2023-01-08T12:20:13;15.30;99.90
25937;DHT22;13733;51.178;4.450;2023-01-08T12:34:02;16.20;99.90
25937;DHT22;13733;51.178;4.450;2023-01-08T12:36:53;16.50;99.90
25937;DHT22;13733;51.178;4.450;2023-01-08T12:39:31;17.10;99.90
25937;DHT22;13733;51.178;4.450;2023-01-08T12:42:08;17.20;99.90
25937;DHT22;13733;51.178;4.450;2023-01-08T12:44:36;16.30;99.90
25937;DHT22;13733;51.178;4.450;2023-01-08T12:47:03;15.70;99.90
25937;DHT22;13733;51.178;4.450;2023-01-08T12:49:46;15.70;99.90
25937;DHT22;13733;51.178;4.450;2023-01-08T12:52:21;16.10;99.90
25937;DHT22;13733;51.178;4.450;2023-01-08T12:55:00;16.40;99.90
25937;DHT22;13733;51.178;4.450;2023-01-08T13:00:44;15.90;99.90
25937;DHT22;13733;51.178;4.450;2023-01-08T13:03:03;14.90;99.90
25937;DHT22;13733;51.178;4.450;2023-01-08T13:05:34;14.30;99.90
25937;DHT22;13733;51.178;4.450;2023-01-08T13:08:32;14.70;99.90
25937;DHT22;13733;51.178;4.450;2023-01-08T13:10:59;14.80;99.90
25937;DHT22;13733;51.178;4.450;2023-01-08T13:13:34;14.40;99.90
25937;DHT22;13733;51.178;4.450;2023-01-08T13:16:06;13.90;99.90
25937;DHT22;13733;51.178;4.450;2023-01-08T13:18:33;14.10;99.90
25937;DHT22;13733;51.178;4.450;2023-01-08T13:21:01;14.00;99.90
25937;DHT22;13733;51.178;4.450;2023-01-08T13:23:30;14.80;99.90
25937;DHT22;13733;51.178;4.450;2023-01-08T13:26:00;14.90;99.90
25937;DHT22;13733;51.178;4.450;2023-01-08T13:28:38;14.90;99.90
25937;DHT22;13733;51.178;4.450;2023-01-08T13:31:37;15.50;99.90
25937;DHT22;13733;51.178;4.450;2023-01-08T13:34:37;16.20;99.90
25937;DHT22;13733;51.178;4.450;2023-01-08T13:37:04;16.60;99.90
25937;DHT22;13733;51.178;4.450;2023-01-08T13:39:36;17.60;99.40
25937;DHT22;13733;51.178;4.450;2023-01-08T13:44:47;17.40;98.40
25937;DHT22;13733;51.178;4.450;2023-01-08T13:49:50;16.70;99.80
25937;DHT22;13733;51.178;4.450;2023-01-08T13:52:47;15.20;99.90
25937;DHT22;13733;51.178;4.450;2023-01-08T13:56:21;14.20;99.90
25937;DHT22;13733;51.178;4.450;2023-01-08T13:58:24;13.70;99.90
25937;DHT22;13733;51.178;4.450;2023-01-08T14:00:52;13.50;99.90
25937;DHT22;13733;51.178;4.450;2023-01-08T14:05:48;13.20;99.90
25937;DHT22;13733;51.178;4.450;2023-01-08T14:08:25;12.90;99.90
25937;DHT22;13733;51.178;4.450;2023-01-08T14:10:52;13.00;99.90
25937;DHT22;13733;51.178;4.450;2023-01-08T14:13:24;12.80;99.90
25937;DHT22;13733;51.178;4.450;2023-01-08T14:15:51;12.70;99.90
25937;DHT22;13733;51.178;4.450;2023-01-08T14:18:17;12.60;99.90
25937;DHT22;13733;51.178;4.450;2023-01-08T14:20:47;12.60;99.90
25937;DHT22;13733;51.178;4.450;2023-01-08T14:23:22;12.50;99.90
25937;DHT22;13733;51.178;4.450;2023-01-08T14:25:49;12.40;99.90
25937;DHT22;13733;51.178;4.450;2023-01-08T14:28:20;12.60;99.90
25937;DHT22;13733;51.178;4.450;2023-01-08T14:30:54;12.30;99.90
25937;DHT22;13733;51.178;4.450;2023-01-08T14:33:27;12.50;99.90
25937;DHT22;13733;51.178;4.450;2023-01-08T14:35:55;12.40;99.90
25937;DHT22;13733;51.178;4.450;2023-01-08T14:38:21;12.40;99.90
25937;DHT22;13733;51.178;4.450;2023-01-08T14:40:49;12.20;99.90
25937;DHT22;13733;51.178;4.450;2023-01-08T14:43:22;12.10;99.90
25937;DHT22;13733;51.178;4.450;2023-01-08T14:45:51;12.10;99.90
25937;DHT22;13733;51.178;4.450;2023-01-08T14:48:23;12.20;99.90
25937;DHT22;13733;51.178;4.450;2023-01-08T14:53:28;12.20;99.90
25937;DHT22;13733;51.178;4.450;2023-01-08T14:55:56;12.00;99.90
25937;DHT22;13733;51.178;4.450;2023-01-08T14:58:28;11.70;99.90
25937;DHT22;13733;51.178;4.450;2023-01-08T15:01:04;11.60;99.90
25937;DHT22;13733;51.178;4.450;2023-01-08T15:03:40;11.80;99.90
25937;DHT22;13733;51.178;4.450;2023-01-08T15:06:07;12.00;99.90
25937;DHT22;13733;51.178;4.450;2023-01-08T15:08:38;11.90;99.90
25937;DHT22;13733;51.178;4.450;2023-01-08T15:11:27;11.90;99.90
25937;DHT22;13733;51.178;4.450;2023-01-08T15:13:52;11.70;99.90
25937;DHT22;13733;51.178;4.450;2023-01-08T15:21:33;11.30;99.90
25937;DHT22;13733;51.178;4.450;2023-01-08T15:24:00;11.30;99.90
25937;DHT22;13733;51.178;4.450;2023-01-08T15:26:27;11.30;99.90
25937;DHT22;13733;51.178;4.450;2023-01-08T15:28:57;11.20;99.90
25937;DHT22;13733;51.178;4.450;2023-01-08T15:33:49;11.20;99.90
25937;DHT22;13733;51.178;4.450;2023-01-08T15:36:15;11.20;99.90
25937;DHT22;13733;51.178;4.450;2023-01-08T15:38:40;11.20;99.90
25937;DHT22;13733;51.178;4.450;2023-01-08T15:41:09;11.20;99.90
25937;DHT22;13733;51.178;4.450;2023-01-08T15:43:35;11.20;99.90
25937;DHT22;13733;51.178;4.450;2023-01-08T15:46:01;11.20;99.90
25937;DHT22;13733;51.178;4.450;2023-01-08T15:48:27;11.20;99.90
25937;DHT22;13733;51.178;4.450;2023-01-08T15:50:52;11.10;99.90
25937;DHT22;13733;51.178;4.450;2023-01-08T15:53:20;11.00;99.90
25937;DHT22;13733;51.178;4.450;2023-01-08T15:55:49;11.00;99.90
25937;DHT22;13733;51.178;4.450;2023-01-08T15:58:16;11.00;99.90
25937;DHT22;13733;51.178;4.450;2023-01-08T16:00:43;11.00;99.90
25937;DHT22;13733;51.178;4.450;2023-01-08T16:03:11;10.90;99.90
25937;DHT22;13733;51.178;4.450;2023-01-08T16:05:38;10.90;99.90
25937;DHT22;13733;51.178;4.450;2023-01-08T16:08:04;10.90;99.90
25937;DHT22;13733;51.178;4.450;2023-01-08T16:10:30;10.80;99.90
25937;DHT22;13733;51.178;4.450;2023-01-08T16:12:56;10.80;99.90
25937;DHT22;13733;51.178;4.450;2023-01-08T16:15:23;10.90;99.90
25937;DHT22;13733;51.178;4.450;2023-01-08T16:17:49;11.00;99.90
25937;DHT22;13733;51.178;4.450;2023-01-08T16:20:15;11.00;99.90
25937;DHT22;13733;51.178;4.450;2023-01-08T16:22:42;11.00;99.90
25937;DHT22;13733;51.178;4.450;2023-01-08T16:25:09;10.90;99.90
25937;DHT22;13733;51.178;4.450;2023-01-08T16:27:35;10.80;99.90
25937;DHT22;13733;51.178;4.450;2023-01-08T16:30:04;10.80;99.90
25937;DHT22;13733;51.178;4.450;2023-01-08T16:32:30;10.70;99.90
25937;DHT22;13733;51.178;4.450;2023-01-08T16:34:56;10.70;99.90
25937;DHT22;13733;51.178;4.450;2023-01-08T16:37:22;10.80;99.90
25937;DHT22;13733;51.178;4.450;2023-01-08T16:39:48;10.70;99.90
25937;DHT22;13733;51.178;4.450;2023-01-08T16:42:13;10.80;99.90
25937;DHT22;13733;51.178;4.450;2023-01-08T16:44:39;10.60;99.90
25937;DHT22;13733;51.178;4.450;2023-01-08T16:47:06;10.70;99.90
25937;DHT22;13733;51.178;4.450;2023-01-08T16:49:32;10.70;99.90
25937;DHT22;13733;51.178;4.450;2023-01-08T16:52:00;10.70;99.90
25937;DHT22;13733;51.178;4.450;2023-01-08T16:54:26;10.70;99.90
25937;DHT22;13733;51.178;4.450;2023-01-08T16:56:52;10.70;99.90
25937;DHT22;13733;51.178;4.450;2023-01-08T16:59:18;10.60;99.90
25937;DHT22;13733;51.178;4.450;2023-01-08T17:01:44;10.60;99.90
25937;DHT22;13733;51.178;4.450;2023-01-08T17:04:10;10.60;99.90
25937;DHT22;13733;51.178;4.450;2023-01-08T17:06:36;10.70;99.90